sensor_id;sensor_type;location;lat;lon;timestamp;P1;durP1;ratioP1;P2;durP2;ratioP2
8042;SDS011;4064;48.132;11.366;2023-04-06T00:02:12;9.33;;;7.80;;
8042;SDS011;4064;48.132;11.366;2023-04-06T00:04:38;8.10;;;7.40;;
8042;SDS011;4064;48.132;11.366;2023-04-06T00:07:04;8.53;;;7.63;;
8042;SDS011;4064;48.132;11.366;2023-04-06T00:09:29;9.20;;;8.33;;
8042;SDS011;4064;48.132;11.366;2023-04-06T00:11:56;8.75;;;7.95;;
8042;SDS011;4064;48.132;11.366;2023-04-06T00:14:23;10.30;;;9.25;;
8042;SDS011;4064;48.132;11.366;2023-04-06T00:16:49;10.88;;;8.93;;
8042;SDS011;4064;48.132;11.366;2023-04-06T00:19:15;9.00;;;8.10;;
8042;SDS011;4064;48.132;11.366;2023-04-06T00:21:41;8.70;;;7.95;;
8042;SDS011;4064;48.132;11.366;2023-04-06T00:24:07;10.80;;;7.67;;
8042;SDS011;4064;48.132;11.366;2023-04-06T00:26:33;8.40;;;7.60;;
8042;SDS011;4064;48.132;11.366;2023-04-06T00:28:59;9.30;;;8.10;;
8042;SDS011;4064;48.132;11.366;2023-04-06T00:31:25;9.73;;;8.80;;
8042;SDS011;4064;48.132;11.366;2023-04-06T00:33:51;10.20;;;8.20;;
8042;SDS011;4064;48.132;11.366;2023-04-06T00:36:17;8.83;;;7.93;;
8042;SDS011;4064;48.132;11.366;2023-04-06T00:38:43;8.20;;;7.40;;
8042;SDS011;4064;48.132;11.366;2023-04-06T00:41:10;10.50;;;8.70;;
8042;SDS011;4064;48.132;11.366;2023-04-06T00:43:36;8.05;;;7.20;;
8042;SDS011;4064;48.132;11.366;2023-04-06T00:46:02;8.17;;;7.37;;
8042;SDS011;4064;48.132;11.366;2023-04-06T00:48:28;8.93;;;8.03;;
8042;SDS011;4064;48.132;11.366;2023-04-06T00:50:55;10.15;;;8.50;;
8042;SDS011;4064;48.132;11.366;2023-04-06T00:53:22;9.70;;;8.43;;
8042;SDS011;4064;48.132;11.366;2023-04-06T00:55:48;9.27;;;8.27;;
8042;SDS011;4064;48.132;11.366;2023-04-06T00:58:15;10.15;;;8.05;;
8042;SDS011;4064;48.132;11.366;2023-04-06T01:00:41;9.13;;;8.23;;
8042;SDS011;4064;48.132;11.366;2023-04-06T01:03:07;8.23;;;7.43;;
8042;SDS011;4064;48.132;11.366;2023-04-06T01:05:36;8.37;;;7.67;;
8042;SDS011;4064;48.132;11.366;2023-04-06T01:08:05;9.32;;;8.45;;
8042;SDS011;4064;48.132;11.366;2023-04-06T01:10:32;10.38;;;8.05;;
8042;SDS011;4064;48.132;11.366;2023-04-06T01:12:58;12.93;;;8.18;;
8042;SDS011;4064;48.132;11.366;2023-04-06T01:15:24;10.37;;;9.37;;
8042;SDS011;4064;48.132;11.366;2023-04-06T01:17:52;9.63;;;8.60;;
8042;SDS011;4064;48.132;11.366;2023-04-06T01:20:18;9.60;;;8.10;;
8042;SDS011;4064;48.132;11.366;2023-04-06T01:22:44;10.13;;;9.27;;
8042;SDS011;4064;48.132;11.366;2023-04-06T01:25:10;8.87;;;8.00;;
8042;SDS011;4064;48.132;11.366;2023-04-06T01:27:36;10.55;;;9.55;;
8042;SDS011;4064;48.132;11.366;2023-04-06T01:30:02;10.00;;;7.90;;
8042;SDS011;4064;48.132;11.366;2023-04-06T01:32:29;8.77;;;7.28;;
8042;SDS011;4064;48.132;11.366;2023-04-06T01:34:55;9.83;;;7.73;;
8042;SDS011;4064;48.132;11.366;2023-04-06T01:37:21;8.90;;;8.10;;
8042;SDS011;4064;48.132;11.366;2023-04-06T01:39:47;10.60;;;8.10;;
8042;SDS011;4064;48.132;11.366;2023-04-06T01:42:12;9.30;;;8.30;;
8042;SDS011;4064;48.132;11.366;2023-04-06T01:44:39;8.90;;;8.00;;
8042;SDS011;4064;48.132;11.366;2023-04-06T01:47:05;10.55;;;9.50;;
8042;SDS011;4064;48.132;11.366;2023-04-06T01:49:31;9.53;;;8.60;;
8042;SDS011;4064;48.132;11.366;2023-04-06T01:51:56;9.30;;;7.77;;
8042;SDS011;4064;48.132;11.366;2023-04-06T01:54:22;10.70;;;9.60;;
8042;SDS011;4064;48.132;11.366;2023-04-06T01:56:49;10.70;;;9.70;;
8042;SDS011;4064;48.132;11.366;2023-04-06T01:59:17;9.98;;;8.38;;
8042;SDS011;4064;48.132;11.366;2023-04-06T02:01:43;8.70;;;7.83;;
8042;SDS011;4064;48.132;11.366;2023-04-06T02:04:09;10.23;;;9.23;;
8042;SDS011;4064;48.132;11.366;2023-04-06T02:06:35;12.00;;;9.37;;
8042;SDS011;4064;48.132;11.366;2023-04-06T02:09:00;10.50;;;9.43;;
8042;SDS011;4064;48.132;11.366;2023-04-06T02:11:26;9.50;;;8.70;;
8042;SDS011;4064;48.132;11.366;2023-04-06T02:13:55;9.50;;;8.50;;
8042;SDS011;4064;48.132;11.366;2023-04-06T02:16:21;9.50;;;8.52;;
8042;SDS011;4064;48.132;11.366;2023-04-06T02:18:49;10.52;;;8.77;;
8042;SDS011;4064;48.132;11.366;2023-04-06T02:21:16;9.65;;;8.48;;
8042;SDS011;4064;48.132;11.366;2023-04-06T02:23:45;10.55;;;9.05;;
8042;SDS011;4064;48.132;11.366;2023-04-06T02:26:12;9.35;;;8.48;;
8042;SDS011;4064;48.132;11.366;2023-04-06T02:28:38;9.55;;;8.55;;
8042;SDS011;4064;48.132;11.366;2023-04-06T02:31:04;12.50;;;8.93;;
8042;SDS011;4064;48.132;11.366;2023-04-06T02:33:30;9.53;;;8.63;;
8042;SDS011;4064;48.132;11.366;2023-04-06T02:35:56;9.17;;;8.30;;
8042;SDS011;4064;48.132;11.366;2023-04-06T02:38:22;9.17;;;8.40;;
8042;SDS011;4064;48.132;11.366;2023-04-06T02:40:47;12.17;;;10.27;;
8042;SDS011;4064;48.132;11.366;2023-04-06T02:43:13;9.83;;;8.83;;
8042;SDS011;4064;48.132;11.366;2023-04-06T02:45:41;9.68;;;8.77;;
8042;SDS011;4064;48.132;11.366;2023-04-06T02:48:07;12.80;;;9.60;;
8042;SDS011;4064;48.132;11.366;2023-04-06T02:50:33;10.60;;;9.07;;
8042;SDS011;4064;48.132;11.366;2023-04-06T02:52:58;9.77;;;8.83;;
8042;SDS011;4064;48.132;11.366;2023-04-06T02:55:25;11.52;;;8.95;;
8042;SDS011;4064;48.132;11.366;2023-04-06T02:57:51;11.23;;;10.27;;
8042;SDS011;4064;48.132;11.366;2023-04-06T03:00:18;10.73;;;9.68;;
8042;SDS011;4064;48.132;11.366;2023-04-06T03:02:44;11.85;;;10.50;;
8042;SDS011;4064;48.132;11.366;2023-04-06T03:05:10;10.70;;;9.70;;
8042;SDS011;4064;48.132;11.366;2023-04-06T03:07:36;9.13;;;8.30;;
8042;SDS011;4064;48.132;11.366;2023-04-06T03:10:02;11.38;;;10.18;;
8042;SDS011;4064;48.132;11.366;2023-04-06T03:12:28;15.73;;;9.55;;
8042;SDS011;4064;48.132;11.366;2023-04-06T03:14:54;10.83;;;9.73;;
8042;SDS011;4064;48.132;11.366;2023-04-06T03:17:20;10.77;;;9.85;;
8042;SDS011;4064;48.132;11.366;2023-04-06T03:19:46;10.30;;;9.30;;
8042;SDS011;4064;48.132;11.366;2023-04-06T03:22:12;12.43;;;10.63;;
8042;SDS011;4064;48.132;11.366;2023-04-06T03:24:38;11.80;;;9.87;;
8042;SDS011;4064;48.132;11.366;2023-04-06T03:27:03;10.40;;;9.40;;
8042;SDS011;4064;48.132;11.366;2023-04-06T03:29:29;10.97;;;9.87;;
8042;SDS011;4064;48.132;11.366;2023-04-06T03:31:56;10.75;;;9.60;;
8042;SDS011;4064;48.132;11.366;2023-04-06T03:34:22;11.03;;;10.03;;
8042;SDS011;4064;48.132;11.366;2023-04-06T03:36:48;11.38;;;10.27;;
8042;SDS011;4064;48.132;11.366;2023-04-06T03:39:15;12.25;;;10.65;;
8042;SDS011;4064;48.132;11.366;2023-04-06T03:41:43;15.25;;;10.93;;
8042;SDS011;4064;48.132;11.366;2023-04-06T03:44:15;11.70;;;10.60;;
8042;SDS011;4064;48.132;11.366;2023-04-06T03:46:41;11.23;;;10.13;;
8042;SDS011;4064;48.132;11.366;2023-04-06T03:49:08;12.10;;;10.80;;
8042;SDS011;4064;48.132;11.366;2023-04-06T03:51:34;11.80;;;10.57;;
8042;SDS011;4064;48.132;11.366;2023-04-06T03:54:00;12.77;;;11.50;;
8042;SDS011;4064;48.132;11.366;2023-04-06T03:56:26;12.30;;;11.00;;
8042;SDS011;4064;48.132;11.366;2023-04-06T03:58:51;13.00;;;10.00;;
8042;SDS011;4064;48.132;11.366;2023-04-06T04:01:17;12.20;;;10.43;;
8042;SDS011;4064;48.132;11.366;2023-04-06T04:03:43;12.83;;;11.53;;
8042;SDS011;4064;48.132;11.366;2023-04-06T04:06:09;12.20;;;11.00;;
8042;SDS011;4064;48.132;11.366;2023-04-06T04:08:35;14.13;;;11.17;;
8042;SDS011;4064;48.132;11.366;2023-04-06T04:11:01;12.50;;;11.20;;
8042;SDS011;4064;48.132;11.366;2023-04-06T04:13:27;15.32;;;12.43;;
8042;SDS011;4064;48.132;11.366;2023-04-06T04:15:53;12.53;;;11.33;;
8042;SDS011;4064;48.132;11.366;2023-04-06T04:18:19;12.30;;;11.00;;
8042;SDS011;4064;48.132;11.366;2023-04-06T04:20:45;15.30;;;11.88;;
8042;SDS011;4064;48.132;11.366;2023-04-06T04:23:11;16.15;;;11.85;;
8042;SDS011;4064;48.132;11.366;2023-04-06T04:25:37;12.30;;;11.10;;
8042;SDS011;4064;48.132;11.366;2023-04-06T04:28:03;12.90;;;11.37;;
8042;SDS011;4064;48.132;11.366;2023-04-06T04:30:29;13.50;;;12.30;;
8042;SDS011;4064;48.132;11.366;2023-04-06T04:32:55;14.38;;;12.85;;
8042;SDS011;4064;48.132;11.366;2023-04-06T04:35:21;14.17;;;11.10;;
8042;SDS011;4064;48.132;11.366;2023-04-06T04:37:46;14.40;;;13.10;;
8042;SDS011;4064;48.132;11.366;2023-04-06T04:40:12;15.50;;;12.03;;
8042;SDS011;4064;48.132;11.366;2023-04-06T04:42:38;14.50;;;13.10;;
8042;SDS011;4064;48.132;11.366;2023-04-06T04:45:04;12.63;;;11.43;;
8042;SDS011;4064;48.132;11.366;2023-04-06T04:47:30;16.63;;;11.63;;
8042;SDS011;4064;48.132;11.366;2023-04-06T04:49:56;13.33;;;11.50;;
8042;SDS011;4064;48.132;11.366;2023-04-06T04:52:21;13.10;;;11.40;;
8042;SDS011;4064;48.132;11.366;2023-04-06T04:54:47;14.27;;;12.10;;
8042;SDS011;4064;48.132;11.366;2023-04-06T04:57:13;13.73;;;12.40;;
8042;SDS011;4064;48.132;11.366;2023-04-06T04:59:40;14.20;;;12.68;;
8042;SDS011;4064;48.132;11.366;2023-04-06T05:02:05;13.57;;;12.27;;
8042;SDS011;4064;48.132;11.366;2023-04-06T05:04:31;15.80;;;11.67;;
8042;SDS011;4064;48.132;11.366;2023-04-06T05:07:07;12.93;;;11.70;;
8042;SDS011;4064;48.132;11.366;2023-04-06T05:09:34;13.25;;;11.95;;
8042;SDS011;4064;48.132;11.366;2023-04-06T05:12:02;13.15;;;11.73;;
8042;SDS011;4064;48.132;11.366;2023-04-06T05:14:27;13.00;;;11.70;;
8042;SDS011;4064;48.132;11.366;2023-04-06T05:16:53;19.43;;;11.53;;
8042;SDS011;4064;48.132;11.366;2023-04-06T05:19:20;15.50;;;13.23;;
8042;SDS011;4064;48.132;11.366;2023-04-06T05:21:46;17.80;;;12.20;;
8042;SDS011;4064;48.132;11.366;2023-04-06T05:24:11;11.80;;;10.60;;
8042;SDS011;4064;48.132;11.366;2023-04-06T05:26:37;19.90;;;12.93;;
8042;SDS011;4064;48.132;11.366;2023-04-06T05:29:03;13.27;;;11.73;;
8042;SDS011;4064;48.132;11.366;2023-04-06T05:31:29;18.70;;;12.30;;
8042;SDS011;4064;48.132;11.366;2023-04-06T05:33:56;12.97;;;11.37;;
8042;SDS011;4064;48.132;11.366;2023-04-06T05:36:22;13.68;;;12.27;;
8042;SDS011;4064;48.132;11.366;2023-04-06T05:38:48;13.67;;;12.23;;
8042;SDS011;4064;48.132;11.366;2023-04-06T05:41:16;14.35;;;11.90;;
8042;SDS011;4064;48.132;11.366;2023-04-06T05:43:42;16.20;;;11.63;;
8042;SDS011;4064;48.132;11.366;2023-04-06T05:46:07;13.50;;;12.07;;
8042;SDS011;4064;48.132;11.366;2023-04-06T05:48:33;12.73;;;11.43;;
8042;SDS011;4064;48.132;11.366;2023-04-06T05:50:59;14.60;;;11.60;;
8042;SDS011;4064;48.132;11.366;2023-04-06T05:53:25;13.15;;;11.77;;
8042;SDS011;4064;48.132;11.366;2023-04-06T05:55:53;13.23;;;11.93;;
8042;SDS011;4064;48.132;11.366;2023-04-06T05:58:20;10.68;;;9.57;;
8042;SDS011;4064;48.132;11.366;2023-04-06T06:00:46;13.45;;;10.18;;
8042;SDS011;4064;48.132;11.366;2023-04-06T06:03:14;10.85;;;8.75;;
8042;SDS011;4064;48.132;11.366;2023-04-06T06:05:40;10.67;;;9.60;;
8042;SDS011;4064;48.132;11.366;2023-04-06T06:08:07;8.57;;;7.77;;
8042;SDS011;4064;48.132;11.366;2023-04-06T06:10:34;10.73;;;9.47;;
8042;SDS011;4064;48.132;11.366;2023-04-06T06:13:00;8.70;;;7.90;;
8042;SDS011;4064;48.132;11.366;2023-04-06T06:15:25;12.07;;;7.50;;
8042;SDS011;4064;48.132;11.366;2023-04-06T06:17:51;8.20;;;7.50;;
8042;SDS011;4064;48.132;11.366;2023-04-06T06:20:17;11.00;;;7.87;;
8042;SDS011;4064;48.132;11.366;2023-04-06T06:22:43;11.63;;;8.13;;
8042;SDS011;4064;48.132;11.366;2023-04-06T06:25:09;7.00;;;6.30;;
8042;SDS011;4064;48.132;11.366;2023-04-06T06:27:35;12.93;;;8.20;;
8042;SDS011;4064;48.132;11.366;2023-04-06T06:30:01;8.17;;;7.47;;
8042;SDS011;4064;48.132;11.366;2023-04-06T06:32:27;8.53;;;7.73;;
8042;SDS011;4064;48.132;11.366;2023-04-06T06:34:53;7.30;;;6.70;;
8042;SDS011;4064;48.132;11.366;2023-04-06T06:37:19;8.13;;;7.33;;
8042;SDS011;4064;48.132;11.366;2023-04-06T06:39:45;7.50;;;6.77;;
8042;SDS011;4064;48.132;11.366;2023-04-06T06:42:11;7.77;;;7.03;;
8042;SDS011;4064;48.132;11.366;2023-04-06T06:44:37;8.20;;;6.90;;
8042;SDS011;4064;48.132;11.366;2023-04-06T06:47:03;9.00;;;8.10;;
8042;SDS011;4064;48.132;11.366;2023-04-06T06:49:30;9.03;;;8.13;;
8042;SDS011;4064;48.132;11.366;2023-04-06T06:51:59;7.57;;;6.93;;
8042;SDS011;4064;48.132;11.366;2023-04-06T06:54:25;8.30;;;7.40;;
8042;SDS011;4064;48.132;11.366;2023-04-06T06:56:51;11.50;;;7.10;;
8042;SDS011;4064;48.132;11.366;2023-04-06T06:59:17;7.17;;;6.57;;
8042;SDS011;4064;48.132;11.366;2023-04-06T07:01:43;7.53;;;6.87;;
8042;SDS011;4064;48.132;11.366;2023-04-06T07:04:08;8.70;;;7.90;;
8042;SDS011;4064;48.132;11.366;2023-04-06T07:06:35;8.03;;;7.00;;
8042;SDS011;4064;48.132;11.366;2023-04-06T07:09:01;8.90;;;7.10;;
8042;SDS011;4064;48.132;11.366;2023-04-06T07:11:28;7.07;;;6.30;;
8042;SDS011;4064;48.132;11.366;2023-04-06T07:13:55;8.00;;;6.50;;
8042;SDS011;4064;48.132;11.366;2023-04-06T07:16:21;12.03;;;6.83;;
8042;SDS011;4064;48.132;11.366;2023-04-06T07:18:47;7.87;;;7.07;;
8042;SDS011;4064;48.132;11.366;2023-04-06T07:21:13;7.10;;;6.40;;
8042;SDS011;4064;48.132;11.366;2023-04-06T07:23:39;6.70;;;6.00;;
8042;SDS011;4064;48.132;11.366;2023-04-06T07:26:05;7.70;;;7.00;;
8042;SDS011;4064;48.132;11.366;2023-04-06T07:28:31;8.47;;;7.77;;
8042;SDS011;4064;48.132;11.366;2023-04-06T07:30:56;7.20;;;6.50;;
8042;SDS011;4064;48.132;11.366;2023-04-06T07:33:22;7.00;;;6.30;;
8042;SDS011;4064;48.132;11.366;2023-04-06T07:35:48;9.30;;;6.80;;
8042;SDS011;4064;48.132;11.366;2023-04-06T07:38:15;8.47;;;6.80;;
8042;SDS011;4064;48.132;11.366;2023-04-06T07:40:42;7.03;;;6.43;;
8042;SDS011;4064;48.132;11.366;2023-04-06T07:43:08;6.53;;;5.83;;
8042;SDS011;4064;48.132;11.366;2023-04-06T07:45:33;7.13;;;6.27;;
8042;SDS011;4064;48.132;11.366;2023-04-06T07:48:00;7.40;;;6.70;;
8042;SDS011;4064;48.132;11.366;2023-04-06T07:50:25;7.43;;;6.67;;
8042;SDS011;4064;48.132;11.366;2023-04-06T07:52:51;7.10;;;6.37;;
8042;SDS011;4064;48.132;11.366;2023-04-06T07:55:17;10.03;;;6.57;;
8042;SDS011;4064;48.132;11.366;2023-04-06T07:57:43;8.60;;;7.50;;
8042;SDS011;4064;48.132;11.366;2023-04-06T08:00:09;7.67;;;6.97;;
8042;SDS011;4064;48.132;11.366;2023-04-06T08:02:35;7.47;;;6.77;;
8042;SDS011;4064;48.132;11.366;2023-04-06T08:05:01;11.53;;;6.17;;
8042;SDS011;4064;48.132;11.366;2023-04-06T08:07:27;7.00;;;6.30;;
8042;SDS011;4064;48.132;11.366;2023-04-06T08:09:53;8.53;;;6.80;;
8042;SDS011;4064;48.132;11.366;2023-04-06T08:12:19;7.97;;;7.17;;
8042;SDS011;4064;48.132;11.366;2023-04-06T08:14:45;8.43;;;7.20;;
8042;SDS011;4064;48.132;11.366;2023-04-06T08:17:10;10.17;;;7.63;;
8042;SDS011;4064;48.132;11.366;2023-04-06T08:19:36;8.03;;;7.00;;
8042;SDS011;4064;48.132;11.366;2023-04-06T08:22:03;8.43;;;7.57;;
8042;SDS011;4064;48.132;11.366;2023-04-06T08:24:29;8.00;;;7.20;;
8042;SDS011;4064;48.132;11.366;2023-04-06T08:26:57;7.63;;;6.93;;
8042;SDS011;4064;48.132;11.366;2023-04-06T08:29:23;9.93;;;7.93;;
8042;SDS011;4064;48.132;11.366;2023-04-06T08:31:48;9.23;;;8.30;;
8042;SDS011;4064;48.132;11.366;2023-04-06T08:34:14;8.90;;;7.60;;
8042;SDS011;4064;48.132;11.366;2023-04-06T08:36:40;8.40;;;7.57;;
8042;SDS011;4064;48.132;11.366;2023-04-06T08:39:07;8.23;;;6.70;;
8042;SDS011;4064;48.132;11.366;2023-04-06T08:41:33;8.80;;;7.90;;
8042;SDS011;4064;48.132;11.366;2023-04-06T08:44:01;8.33;;;7.53;;
8042;SDS011;4064;48.132;11.366;2023-04-06T08:46:31;9.13;;;8.23;;
8042;SDS011;4064;48.132;11.366;2023-04-06T08:49:01;7.70;;;7.10;;
8042;SDS011;4064;48.132;11.366;2023-04-06T08:51:28;9.00;;;8.10;;
8042;SDS011;4064;48.132;11.366;2023-04-06T08:53:58;8.53;;;7.73;;
8042;SDS011;4064;48.132;11.366;2023-04-06T08:56:26;8.20;;;7.50;;
8042;SDS011;4064;48.132;11.366;2023-04-06T08:58:53;9.03;;;8.20;;
8042;SDS011;4064;48.132;11.366;2023-04-06T09:01:21;9.10;;;8.20;;
8042;SDS011;4064;48.132;11.366;2023-04-06T09:03:49;9.10;;;8.20;;
8042;SDS011;4064;48.132;11.366;2023-04-06T09:06:18;9.00;;;8.20;;
8042;SDS011;4064;48.132;11.366;2023-04-06T09:08:45;9.63;;;8.50;;
8042;SDS011;4064;48.132;11.366;2023-04-06T09:11:12;9.10;;;8.20;;
8042;SDS011;4064;48.132;11.366;2023-04-06T09:13:54;8.97;;;8.17;;
8042;SDS011;4064;48.132;11.366;2023-04-06T09:16:21;8.20;;;7.47;;
8042;SDS011;4064;48.132;11.366;2023-04-06T09:18:48;8.73;;;8.00;;
8042;SDS011;4064;48.132;11.366;2023-04-06T09:21:16;9.07;;;8.23;;
8042;SDS011;4064;48.132;11.366;2023-04-06T09:23:43;9.43;;;8.60;;
8042;SDS011;4064;48.132;11.366;2023-04-06T09:26:16;10.90;;;10.00;;
8042;SDS011;4064;48.132;11.366;2023-04-06T09:28:47;10.30;;;9.37;;
8042;SDS011;4064;48.132;11.366;2023-04-06T09:31:15;10.17;;;9.27;;
8042;SDS011;4064;48.132;11.366;2023-04-06T09:33:46;9.23;;;8.43;;
8042;SDS011;4064;48.132;11.366;2023-04-06T09:36:13;10.23;;;9.27;;
8042;SDS011;4064;48.132;11.366;2023-04-06T09:38:52;10.57;;;9.57;;
8042;SDS011;4064;48.132;11.366;2023-04-06T09:44:11;10.63;;;9.63;;
8042;SDS011;4064;48.132;11.366;2023-04-06T09:49:06;11.23;;;10.23;;
8042;SDS011;4064;48.132;11.366;2023-04-06T09:51:36;10.43;;;9.10;;
8042;SDS011;4064;48.132;11.366;2023-04-06T09:54:07;9.20;;;8.40;;
8042;SDS011;4064;48.132;11.366;2023-04-06T09:56:39;9.50;;;8.53;;
8042;SDS011;4064;48.132;11.366;2023-04-06T09:59:18;9.23;;;8.43;;
8042;SDS011;4064;48.132;11.366;2023-04-06T10:02:05;9.50;;;8.73;;
8042;SDS011;4064;48.132;11.366;2023-04-06T10:07:08;10.73;;;9.80;;
8042;SDS011;4064;48.132;11.366;2023-04-06T10:09:37;12.80;;;10.67;;
8042;SDS011;4064;48.132;11.366;2023-04-06T10:12:06;10.20;;;9.33;;
8042;SDS011;4064;48.132;11.366;2023-04-06T10:14:35;10.03;;;9.20;;
8042;SDS011;4064;48.132;11.366;2023-04-06T10:17:06;10.10;;;9.20;;
8042;SDS011;4064;48.132;11.366;2023-04-06T10:19:34;10.40;;;9.40;;
8042;SDS011;4064;48.132;11.366;2023-04-06T10:22:02;10.10;;;9.30;;
8042;SDS011;4064;48.132;11.366;2023-04-06T10:24:30;10.90;;;10.00;;
8042;SDS011;4064;48.132;11.366;2023-04-06T10:26:57;10.20;;;9.20;;
8042;SDS011;4064;48.132;11.366;2023-04-06T10:29:25;11.03;;;10.03;;
8042;SDS011;4064;48.132;11.366;2023-04-06T10:31:51;10.10;;;9.10;;
8042;SDS011;4064;48.132;11.366;2023-04-06T10:34:17;11.10;;;10.00;;
8042;SDS011;4064;48.132;11.366;2023-04-06T10:36:43;10.47;;;9.50;;
8042;SDS011;4064;48.132;11.366;2023-04-06T10:39:08;9.63;;;8.73;;
8042;SDS011;4064;48.132;11.366;2023-04-06T10:41:36;9.87;;;8.97;;
8042;SDS011;4064;48.132;11.366;2023-04-06T10:44:07;9.97;;;9.07;;
8042;SDS011;4064;48.132;11.366;2023-04-06T10:46:42;10.67;;;9.63;;
8042;SDS011;4064;48.132;11.366;2023-04-06T10:49:37;8.83;;;7.97;;
8042;SDS011;4064;48.132;11.366;2023-04-06T10:52:03;8.47;;;7.57;;
8042;SDS011;4064;48.132;11.366;2023-04-06T10:54:31;8.67;;;7.77;;
8042;SDS011;4064;48.132;11.366;2023-04-06T10:56:57;8.30;;;7.60;;
8042;SDS011;4064;48.132;11.366;2023-04-06T10:59:23;8.87;;;7.40;;
8042;SDS011;4064;48.132;11.366;2023-04-06T11:01:50;10.00;;;7.80;;
8042;SDS011;4064;48.132;11.366;2023-04-06T11:04:17;9.63;;;8.73;;
8042;SDS011;4064;48.132;11.366;2023-04-06T11:06:46;10.37;;;9.37;;
8042;SDS011;4064;48.132;11.366;2023-04-06T11:09:22;11.50;;;10.23;;
8042;SDS011;4064;48.132;11.366;2023-04-06T11:11:50;11.13;;;10.13;;
8042;SDS011;4064;48.132;11.366;2023-04-06T11:14:16;10.53;;;9.60;;
8042;SDS011;4064;48.132;11.366;2023-04-06T11:16:42;10.83;;;9.73;;
8042;SDS011;4064;48.132;11.366;2023-04-06T11:19:11;10.47;;;9.57;;
8042;SDS011;4064;48.132;11.366;2023-04-06T11:24:19;9.33;;;8.50;;
8042;SDS011;4064;48.132;11.366;2023-04-06T11:26:48;9.00;;;8.17;;
8042;SDS011;4064;48.132;11.366;2023-04-06T11:29:23;9.00;;;8.10;;
8042;SDS011;4064;48.132;11.366;2023-04-06T11:31:51;11.67;;;8.67;;
8042;SDS011;4064;48.132;11.366;2023-04-06T11:34:32;8.93;;;7.53;;
8042;SDS011;4064;48.132;11.366;2023-04-06T11:37:02;8.80;;;7.90;;
8042;SDS011;4064;48.132;11.366;2023-04-06T11:39:31;7.80;;;7.20;;
8042;SDS011;4064;48.132;11.366;2023-04-06T11:42:00;7.57;;;6.90;;
8042;SDS011;4064;48.132;11.366;2023-04-06T11:44:42;8.00;;;7.20;;
8042;SDS011;4064;48.132;11.366;2023-04-06T11:47:11;7.87;;;6.93;;
8042;SDS011;4064;48.132;11.366;2023-04-06T11:49:39;8.70;;;7.67;;
8042;SDS011;4064;48.132;11.366;2023-04-06T11:52:21;8.33;;;7.40;;
8042;SDS011;4064;48.132;11.366;2023-04-06T11:54:50;8.63;;;7.80;;
8042;SDS011;4064;48.132;11.366;2023-04-06T11:57:18;7.87;;;7.17;;
8042;SDS011;4064;48.132;11.366;2023-04-06T11:59:45;8.70;;;7.90;;
8042;SDS011;4064;48.132;11.366;2023-04-06T12:02:12;8.67;;;7.77;;
8042;SDS011;4064;48.132;11.366;2023-04-06T12:04:38;9.27;;;8.37;;
8042;SDS011;4064;48.132;11.366;2023-04-06T12:07:04;9.20;;;8.20;;
8042;SDS011;4064;48.132;11.366;2023-04-06T12:09:31;8.70;;;7.87;;
8042;SDS011;4064;48.132;11.366;2023-04-06T12:11:57;8.23;;;7.50;;
8042;SDS011;4064;48.132;11.366;2023-04-06T12:14:23;11.33;;;7.57;;
8042;SDS011;4064;48.132;11.366;2023-04-06T12:16:49;9.47;;;8.57;;
8042;SDS011;4064;48.132;11.366;2023-04-06T12:19:15;9.57;;;8.60;;
8042;SDS011;4064;48.132;11.366;2023-04-06T12:21:40;9.80;;;8.20;;
8042;SDS011;4064;48.132;11.366;2023-04-06T12:24:07;9.20;;;8.40;;
8042;SDS011;4064;48.132;11.366;2023-04-06T12:26:34;9.60;;;8.80;;
8042;SDS011;4064;48.132;11.366;2023-04-06T12:29:02;9.50;;;8.60;;
8042;SDS011;4064;48.132;11.366;2023-04-06T12:31:31;9.77;;;8.80;;
8042;SDS011;4064;48.132;11.366;2023-04-06T12:34:00;9.53;;;8.53;;
8042;SDS011;4064;48.132;11.366;2023-04-06T12:36:27;8.60;;;7.80;;
8042;SDS011;4064;48.132;11.366;2023-04-06T12:38:53;9.30;;;8.50;;
8042;SDS011;4064;48.132;11.366;2023-04-06T12:41:19;8.60;;;7.80;;
8042;SDS011;4064;48.132;11.366;2023-04-06T12:43:45;8.73;;;8.03;;
8042;SDS011;4064;48.132;11.366;2023-04-06T12:46:11;7.83;;;7.13;;
8042;SDS011;4064;48.132;11.366;2023-04-06T12:48:37;8.37;;;7.67;;
8042;SDS011;4064;48.132;11.366;2023-04-06T12:51:05;8.93;;;8.13;;
8042;SDS011;4064;48.132;11.366;2023-04-06T12:53:32;10.20;;;8.00;;
8042;SDS011;4064;48.132;11.366;2023-04-06T12:55:59;8.17;;;7.50;;
8042;SDS011;4064;48.132;11.366;2023-04-06T12:58:25;9.20;;;7.83;;
8042;SDS011;4064;48.132;11.366;2023-04-06T13:00:55;8.83;;;8.03;;
8042;SDS011;4064;48.132;11.366;2023-04-06T13:03:22;7.50;;;6.80;;
8042;SDS011;4064;48.132;11.366;2023-04-06T13:05:49;8.30;;;7.50;;
8042;SDS011;4064;48.132;11.366;2023-04-06T13:08:17;7.30;;;6.70;;
8042;SDS011;4064;48.132;11.366;2023-04-06T13:10:48;7.30;;;6.70;;
8042;SDS011;4064;48.132;11.366;2023-04-06T13:13:15;7.53;;;6.93;;
8042;SDS011;4064;48.132;11.366;2023-04-06T13:15:42;8.13;;;7.37;;
8042;SDS011;4064;48.132;11.366;2023-04-06T13:18:10;11.30;;;10.27;;
8042;SDS011;4064;48.132;11.366;2023-04-06T13:20:36;6.07;;;5.47;;
8042;SDS011;4064;48.132;11.366;2023-04-06T13:23:02;6.40;;;5.80;;
8042;SDS011;4064;48.132;11.366;2023-04-06T13:25:28;11.87;;;10.77;;
8042;SDS011;4064;48.132;11.366;2023-04-06T13:27:55;9.50;;;8.70;;
8042;SDS011;4064;48.132;11.366;2023-04-06T13:30:21;10.03;;;9.03;;
8042;SDS011;4064;48.132;11.366;2023-04-06T13:32:47;9.40;;;8.03;;
8042;SDS011;4064;48.132;11.366;2023-04-06T13:35:13;9.47;;;8.47;;
8042;SDS011;4064;48.132;11.366;2023-04-06T13:37:41;10.77;;;8.20;;
8042;SDS011;4064;48.132;11.366;2023-04-06T13:40:07;8.60;;;7.87;;
8042;SDS011;4064;48.132;11.366;2023-04-06T13:42:34;10.47;;;8.53;;
8042;SDS011;4064;48.132;11.366;2023-04-06T13:45:08;8.53;;;7.83;;
8042;SDS011;4064;48.132;11.366;2023-04-06T13:47:36;8.37;;;7.20;;
8042;SDS011;4064;48.132;11.366;2023-04-06T13:50:03;9.80;;;8.03;;
8042;SDS011;4064;48.132;11.366;2023-04-06T13:52:29;7.30;;;6.37;;
8042;SDS011;4064;48.132;11.366;2023-04-06T13:54:55;7.50;;;6.80;;
8042;SDS011;4064;48.132;11.366;2023-04-06T13:57:21;10.30;;;6.20;;
8042;SDS011;4064;48.132;11.366;2023-04-06T13:59:47;7.53;;;6.93;;
8042;SDS011;4064;48.132;11.366;2023-04-06T14:02:15;8.10;;;7.30;;
8042;SDS011;4064;48.132;11.366;2023-04-06T14:04:41;6.67;;;6.07;;
8042;SDS011;4064;48.132;11.366;2023-04-06T14:07:07;6.47;;;5.87;;
8042;SDS011;4064;48.132;11.366;2023-04-06T14:09:33;5.80;;;5.30;;
8042;SDS011;4064;48.132;11.366;2023-04-06T14:11:59;6.17;;;5.67;;
8042;SDS011;4064;48.132;11.366;2023-04-06T14:14:25;6.50;;;5.90;;
8042;SDS011;4064;48.132;11.366;2023-04-06T14:16:53;5.87;;;5.37;;
8042;SDS011;4064;48.132;11.366;2023-04-06T14:19:19;7.43;;;5.80;;
8042;SDS011;4064;48.132;11.366;2023-04-06T14:21:47;6.10;;;5.60;;
8042;SDS011;4064;48.132;11.366;2023-04-06T14:24:13;5.90;;;5.40;;
8042;SDS011;4064;48.132;11.366;2023-04-06T14:26:40;6.03;;;5.47;;
8042;SDS011;4064;48.132;11.366;2023-04-06T14:29:09;6.50;;;5.90;;
8042;SDS011;4064;48.132;11.366;2023-04-06T14:31:35;6.67;;;6.07;;
8042;SDS011;4064;48.132;11.366;2023-04-06T14:34:01;8.00;;;5.33;;
8042;SDS011;4064;48.132;11.366;2023-04-06T14:36:28;6.27;;;5.77;;
8042;SDS011;4064;48.132;11.366;2023-04-06T14:39:04;6.07;;;5.50;;
8042;SDS011;4064;48.132;11.366;2023-04-06T14:41:32;6.20;;;5.70;;
8042;SDS011;4064;48.132;11.366;2023-04-06T14:43:59;6.70;;;6.03;;
8042;SDS011;4064;48.132;11.366;2023-04-06T14:46:26;6.10;;;5.50;;
8042;SDS011;4064;48.132;11.366;2023-04-06T14:48:55;5.77;;;5.27;;
8042;SDS011;4064;48.132;11.366;2023-04-06T14:51:25;5.20;;;4.70;;
8042;SDS011;4064;48.132;11.366;2023-04-06T14:53:54;6.07;;;5.57;;
8042;SDS011;4064;48.132;11.366;2023-04-06T14:56:23;5.87;;;5.33;;
8042;SDS011;4064;48.132;11.366;2023-04-06T14:58:50;5.13;;;4.53;;
8042;SDS011;4064;48.132;11.366;2023-04-06T15:01:17;5.83;;;5.23;;
8042;SDS011;4064;48.132;11.366;2023-04-06T15:03:45;4.57;;;4.17;;